Time;durP1;ratioP1;P1;durP2;ratioP2;P2;SDS_P1;SDS_P2;PMS_P1;PMS_P2;Temp;Humidity;BMP_temperature;BMP_pressure;BME280_temperature;BME280_humidity;BME280_pressure;Samples;Min_cycle;Max_cycle;Signal;HPM_P1;HPM_P2
2022/01/11 00:02:15;;;;;;;69.10;24.20;;;;;;;-0.99;100.00;103042.91;5052876;28;20032;-81
2022/01/11 00:04:40;;;;;;;70.57;23.33;;;;;;;-0.99;100.00;103054.84;5052810;28;20427;-81
2022/01/11 00:07:09;;;;;;;77.32;24.48;;;;;;;-1.00;100.00;103056.53;5051779;28;20025;-81
2022/01/11 00:09:40;;;;;;;75.25;23.63;;;;;;;-0.99;100.00;103063.41;5050854;28;20032;-82
2022/01/11 00:12:08;;;;;;;74.13;24.42;;;;;;;-1.02;100.00;103064.91;5051084;28;20076;-81
2022/01/11 00:14:34;;;;;;;76.70;23.60;;;;;;;-1.03;100.00;103078.50;5050164;28;20029;-81
2022/01/11 00:17:00;;;;;;;85.90;25.63;;;;;;;-1.04;100.00;103081.88;5052458;28;20051;-81
2022/01/11 00:19:25;;;;;;;69.13;24.42;;;;;;;-1.03;100.00;103086.19;5036251;28;20036;-81
2022/01/11 00:21:51;;;;;;;65.32;24.65;;;;;;;-1.03;100.00;103088.75;5032183;28;20491;-81
2022/01/11 00:26:55;;;;;;;76.10;26.63;;;;;;;-1.03;100.00;103075.94;5033508;28;20053;-81
2022/01/11 00:29:20;;;;;;;69.90;25.05;;;;;;;-1.01;100.00;103079.50;5048049;28;20111;-81
2022/01/11 00:31:47;;;;;;;77.03;25.55;;;;;;;-1.04;100.00;103064.81;5032252;28;20124;-81
2022/01/11 00:34:15;;;;;;;76.75;25.52;;;;;;;-0.99;100.00;103075.31;5032355;28;20100;-81
2022/01/11 00:36:42;;;;;;;80.20;26.42;;;;;;;-0.98;100.00;103072.00;5032369;28;20435;-81
2022/01/11 00:39:08;;;;;;;71.93;24.85;;;;;;;-0.94;100.00;103079.06;5050862;28;20025;-81
2022/01/11 00:41:36;;;;;;;89.07;28.70;;;;;;;-0.92;100.00;103076.56;5050371;28;20036;-81
2022/01/11 00:44:01;;;;;;;74.68;25.23;;;;;;;-0.88;100.00;103070.84;5052137;28;20032;-81
2022/01/11 00:46:26;;;;;;;81.55;27.30;;;;;;;-0.88;100.00;103065.72;5052036;28;20028;-81
2022/01/11 00:48:51;;;;;;;82.95;27.33;;;;;;;-0.89;100.00;103058.84;5032094;28;20378;-82
2022/01/11 00:51:17;;;;;;;76.97;26.83;;;;;;;-0.87;100.00;103062.38;5032069;28;20022;-81
2022/01/11 00:53:42;;;;;;;89.07;27.23;;;;;;;-0.87;100.00;103068.38;5032651;28;20392;-81
2022/01/11 00:56:08;;;;;;;79.10;26.25;;;;;;;-0.87;100.00;103067.50;5050276;28;20032;-81
2022/01/11 00:58:33;;;;;;;79.35;26.05;;;;;;;-0.86;100.00;103054.78;5051240;28;20067;-81
2022/01/11 01:00:58;;;;;;;85.53;26.42;;;;;;;-0.87;100.00;103055.56;5041667;28;20389;-82
2022/01/11 01:03:25;;;;;;;82.05;25.83;;;;;;;-0.85;100.00;103056.56;5031439;28;20358;-81
2022/01/11 01:05:51;;;;;;;90.88;26.17;;;;;;;-0.85;100.00;103060.78;5031863;28;20028;-81
2022/01/11 01:08:17;;;;;;;79.28;28.73;;;;;;;-0.84;100.00;103066.00;5033269;28;20036;-81
2022/01/11 01:10:46;;;;;;;85.20;27.30;;;;;;;-0.85;100.00;103061.69;5049914;28;20025;-81
2022/01/11 01:13:17;;;;;;;86.65;27.58;;;;;;;-0.84;100.00;103078.81;5050992;28;20025;-81
2022/01/11 01:15:46;;;;;;;84.38;26.75;;;;;;;-0.83;100.00;103075.44;5051771;28;20108;-82
2022/01/11 01:18:15;;;;;;;92.90;29.38;;;;;;;-0.82;100.00;103072.09;5042959;28;20369;-82
2022/01/11 01:20:40;;;;;;;93.90;28.23;;;;;;;-0.91;100.00;103063.88;5031617;28;20091;-82
2022/01/11 01:23:06;;;;;;;96.95;30.48;;;;;;;-0.83;100.00;103072.00;5031311;28;20037;-81
2022/01/11 01:25:32;;;;;;;97.18;30.30;;;;;;;-0.83;100.00;103084.81;5049237;28;20024;-82
2022/01/11 01:27:58;;;;;;;97.82;29.58;;;;;;;-0.87;100.00;103068.38;5046651;28;20030;-81
2022/01/11 01:30:23;;;;;;;89.47;28.08;;;;;;;-0.85;100.00;103069.38;5031986;28;20021;-82
2022/01/11 01:32:51;;;;;;;95.53;30.27;;;;;;;-0.83;100.00;103064.31;5030785;28;20032;-82
2022/01/11 01:35:18;;;;;;;108.03;29.45;;;;;;;-0.83;100.00;103075.44;5031602;28;20495;-82
2022/01/11 01:37:44;;;;;;;97.32;29.88;;;;;;;-0.82;100.00;103079.78;5038303;28;20033;-81
2022/01/11 01:40:12;;;;;;;101.03;30.25;;;;;;;-0.81;100.00;103083.22;5031597;28;20143;-82
2022/01/11 01:42:37;;;;;;;96.45;28.98;;;;;;;-0.84;100.00;103077.94;5049302;28;20123;-81
2022/01/11 01:45:04;;;;;;;93.20;29.58;;;;;;;-0.86;100.00;103072.69;5050520;28;20539;-82
2022/01/11 01:47:30;;;;;;;87.18;27.48;;;;;;;-0.85;100.00;103076.13;5042313;28;20038;-82
2022/01/11 01:49:56;;;;;;;95.18;28.08;;;;;;;-0.86;100.00;103072.69;5051161;28;20021;-81
2022/01/11 01:52:22;;;;;;;88.80;28.10;;;;;;;-0.85;100.00;103074.50;5035135;28;20021;-82
2022/01/11 01:54:48;;;;;;;86.95;29.73;;;;;;;-0.86;100.00;103075.25;5035445;28;20026;-82
2022/01/11 01:57:13;;;;;;;88.60;28.20;;;;;;;-0.87;100.00;103070.94;5052549;28;20032;-82
2022/01/11 01:59:39;;;;;;;83.15;26.10;;;;;;;-0.87;100.00;103080.31;5039604;28;20029;-82
2022/01/11 02:02:07;;;;;;;83.72;27.13;;;;;;;-0.90;100.00;103075.00;5034943;28;20073;-82
2022/01/11 02:04:32;;;;;;;87.70;27.65;;;;;;;-0.96;100.00;103089.19;5035420;28;20090;-81
2022/01/11 02:06:58;;;;;;;80.93;27.63;;;;;;;-0.97;100.00;103084.88;5034417;28;20042;-82
2022/01/11 02:09:23;;;;;;;88.72;27.73;;;;;;;-0.91;100.00;103091.16;5048471;28;20380;-82
2022/01/11 02:11:48;;;;;;;83.13;25.27;;;;;;;-0.95;100.00;103096.09;5045632;28;20388;-82
2022/01/11 02:14:14;;;;;;;89.10;27.60;;;;;;;-0.96;100.00;103101.13;5034186;28;20476;-81
2022/01/11 02:16:40;;;;;;;86.35;27.30;;;;;;;-0.96;100.00;103089.19;5041336;28;20137;-81
2022/01/11 02:19:05;;;;;;;84.63;26.98;;;;;;;-0.95;100.00;103088.44;5040421;28;20021;-81
2022/01/11 02:21:31;;;;;;;96.40;28.83;;;;;;;-0.99;100.00;103088.13;5034270;28;20026;-81
2022/01/11 02:23:59;;;;;;;84.22;26.35;;;;;;;-0.96;100.00;103101.13;5042871;28;20040;-81
2022/01/11 02:26:25;;;;;;;93.60;27.95;;;;;;;-1.00;100.00;103115.41;5054537;28;20134;-82
2022/01/11 02:28:51;;;;;;;88.47;27.27;;;;;;;-1.00;100.00;103115.41;5053303;28;20456;-81
2022/01/11 02:31:17;;;;;;;85.43;28.52;;;;;;;-0.98;100.00;103112.97;5054632;28;20029;-82
2022/01/11 02:33:49;;;;;;;83.32;25.73;;;;;;;-1.01;100.00;103110.22;5054579;28;20488;-82
2022/01/11 02:36:23;;;;;;;84.28;25.60;;;;;;;-1.02;100.00;103113.56;5042038;28;20405;-82
2022/01/11 02:38:52;;;;;;;78.03;26.33;;;;;;;-1.01;100.00;103111.09;5043214;28;20057;-81
2022/01/11 02:41:18;;;;;;;76.85;24.13;;;;;;;-1.01;100.00;103117.91;5049771;28;20029;-81
2022/01/11 02:43:48;;;;;;;87.95;26.70;;;;;;;-1.00;100.00;103124.78;5035475;28;20784;-82
2022/01/11 02:46:15;;;;;;;83.75;27.77;;;;;;;-0.99;100.00;103134.22;5034422;28;20033;-81
2022/01/11 02:48:41;;;;;;;93.90;28.58;;;;;;;-1.00;100.00;103135.03;5034889;28;20029;-82
2022/01/11 02:51:07;;;;;;;81.55;27.02;;;;;;;-1.01;100.00;103136.69;5034263;28;20547;-82
2022/01/11 02:53:39;;;;;;;89.70;28.73;;;;;;;-1.00;100.00;103137.59;5042857;28;20067;-81
2022/01/11 02:56:04;;;;;;;85.07;28.65;;;;;;;-1.01;100.00;103136.69;5051150;28;20036;-82
2022/01/11 02:58:29;;;;;;;82.15;27.80;;;;;;;-1.01;100.00;103136.69;5051521;28;20048;-82
2022/01/11 03:00:55;;;;;;;82.80;27.65;;;;;;;-1.01;100.00;103146.06;5054017;28;20591;-81
2022/01/11 03:03:25;;;;;;;88.47;30.00;;;;;;;-1.03;100.00;103142.50;5053756;28;20024;-82
2022/01/11 03:05:57;;;;;;;79.93;25.92;;;;;;;-1.02;100.00;103144.28;5040419;28;20032;-82
2022/01/11 03:08:24;;;;;;;83.38;27.05;;;;;;;-1.03;100.00;103139.97;5036063;28;20440;-81
2022/01/11 03:10:51;;;;;;;88.53;26.63;;;;;;;-1.07;100.00;103135.44;5033348;28;20418;-81
2022/01/11 03:13:17;;;;;;;83.78;27.35;;;;;;;-1.08;100.00;103138.78;5034228;28;20105;-82
2022/01/11 03:15:44;;;;;;;83.13;26.80;;;;;;;-1.09;100.00;103144.69;5034027;28;20113;-81
2022/01/11 03:18:09;;;;;;;79.63;26.55;;;;;;;-1.14;100.00;103139.31;5034143;28;20029;-81
2022/01/11 03:20:36;;;;;;;84.25;26.80;;;;;;;-1.14;100.00;103144.44;5033763;28;20029;-81
2022/01/11 03:23:02;;;;;;;82.25;28.17;;;;;;;-1.16;100.00;103145.13;5042123;28;20449;-81
2022/01/11 03:25:28;;;;;;;83.85;27.17;;;;;;;-1.17;100.00;103141.69;5051359;28;20052;-81
2022/01/11 03:27:53;;;;;;;81.10;26.17;;;;;;;-1.17;100.00;103141.69;5051439;28;20472;-81
2022/01/11 03:30:19;;;;;;;89.90;27.55;;;;;;;-1.19;100.00;103141.56;5052948;28;20086;-81
2022/01/11 03:32:45;;;;;;;81.85;27.75;;;;;;;-1.20;100.00;103144.94;5052663;28;20079;-82
2022/01/11 03:35:12;;;;;;;83.95;26.52;;;;;;;-1.20;100.00;103134.69;5052343;28;20115;-81
2022/01/11 03:37:38;;;;;;;81.32;27.13;;;;;;;-1.19;100.00;103135.56;5052623;28;20067;-81
2022/01/11 03:40:07;;;;;;;87.15;27.63;;;;;;;-1.18;100.00;103137.34;5035336;28;20503;-81
2022/01/11 03:42:32;;;;;;;82.32;27.27;;;;;;;-1.21;100.00;103124.34;5053044;28;20496;-81
2022/01/11 03:44:57;;;;;;;81.00;26.42;;;;;;;-1.22;100.00;103131.16;5052351;28;20021;-81
2022/01/11 03:47:23;;;;;;;80.75;26.73;;;;;;;-1.24;100.00;103125.06;5051045;28;20041;-81
2022/01/11 03:49:48;;;;;;;76.30;26.23;;;;;;;-1.28;100.00;103122.22;5033243;28;20480;-82
2022/01/11 03:52:13;;;;;;;80.60;27.23;;;;;;;-1.24;100.00;103135.31;5032276;28;20032;-81
2022/01/11 03:54:50;;;;;;;81.38;28.08;;;;;;;-1.24;100.00;103131.88;5042191;28;20404;-81
2022/01/11 03:57:17;;;;;;;78.47;28.17;;;;;;;-1.28;100.00;103124.75;5036089;28;20076;-81
2022/01/11 03:59:42;;;;;;;76.65;26.38;;;;;;;-1.31;100.00;103130.59;5045859;28;20034;-81
2022/01/11 04:02:07;;;;;;;77.00;28.33;;;;;;;-1.33;100.00;103126.19;5032800;28;20075;-81
2022/01/11 04:04:33;;;;;;;69.75;25.60;;;;;;;-1.38;100.00;103133.53;5032870;28;20025;-81
2022/01/11 04:07:00;;;;;;;74.25;26.92;;;;;;;-1.43;100.00;103127.28;5031998;28;20472;-82
2022/01/11 04:09:25;;;;;;;72.20;26.30;;;;;;;-1.44;100.00;103138.28;5049325;28;20037;-81
2022/01/11 04:11:50;;;;;;;76.82;26.10;;;;;;;-1.48;100.00;103141.44;5052118;28;20083;-81
2022/01/11 04:14:15;;;;;;;71.03;25.35;;;;;;;-1.50;100.00;103143.03;5051858;28;20023;-82
2022/01/11 04:16:41;;;;;;;72.15;25.60;;;;;;;-1.51;100.00;103148.94;5052735;28;20037;-81
2022/01/11 04:19:06;;;;;;;78.15;25.88;;;;;;;-1.50;100.00;103148.16;5051315;28;20037;-81
2022/01/11 04:21:31;;;;;;;82.63;26.50;;;;;;;-1.49;100.00;103152.47;5035313;28;20037;-81
2022/01/11 04:23:57;;;;;;;80.28;27.65;;;;;;;-1.49;100.00;103144.81;5048544;28;20048;-82
2022/01/11 04:26:22;;;;;;;75.85;27.38;;;;;;;-1.48;100.00;103136.31;5051335;28;20400;-81
2022/01/11 04:28:48;;;;;;;75.90;26.25;;;;;;;-1.51;100.00;103133.56;5050840;28;20435;-81
2022/01/11 04:31:13;;;;;;;74.00;27.60;;;;;;;-1.48;100.00;103144.88;5052270;28;20033;-81
2022/01/11 04:33:43;;;;;;;76.45;27.88;;;;;;;-1.50;100.00;103153.28;5051657;28;20032;-81
2022/01/11 04:36:09;;;;;;;76.72;26.98;;;;;;;-1.54;100.00;103162.41;5052088;28;20048;-81
2022/01/11 04:38:34;;;;;;;78.13;27.80;;;;;;;-1.54;100.00;103161.53;5049766;28;20162;-81
2022/01/11 04:41:00;;;;;;;76.05;26.45;;;;;;;-1.56;100.00;103165.69;5051351;28;20017;-82
2022/01/11 04:43:25;;;;;;;72.63;25.00;;;;;;;-1.60;100.00;103159.50;5051898;28;20025;-81
2022/01/11 04:45:50;;;;;;;72.22;26.77;;;;;;;-1.66;100.00;103161.66;5052400;28;20373;-81
2022/01/11 04:48:16;;;;;;;66.18;25.17;;;;;;;-1.69;100.00;103166.56;5049325;28;20037;-81
2022/01/11 04:50:41;;;;;;;81.15;26.95;;;;;;;-1.71;100.00;103163.91;5052011;28;20048;-81
2022/01/11 04:53:07;;;;;;;84.88;27.23;;;;;;;-1.72;100.00;103167.25;5049826;28;20472;-81
2022/01/11 04:55:32;;;;;;;70.57;27.50;;;;;;;-1.72;100.00;103158.69;5042207;28;20039;-81
2022/01/11 04:57:59;;;;;;;85.22;29.48;;;;;;;-1.75;100.00;103149.16;5051935;28;20029;-81
2022/01/11 05:00:25;;;;;;;71.18;27.08;;;;;;;-1.75;100.00;103159.38;5047390;28;20029;-81
2022/01/11 05:02:51;;;;;;;78.32;28.85;;;;;;;-1.82;100.00;103152.09;5051445;28;20033;-81
2022/01/11 05:05:17;;;;;;;75.82;27.45;;;;;;;-1.82;100.00;103154.66;5038035;28;20036;-81
2022/01/11 05:07:43;;;;;;;73.90;28.48;;;;;;;-1.88;100.00;103159.38;5031728;28;20029;-81
2022/01/11 05:10:09;;;;;;;64.70;27.42;;;;;;;-1.89;100.00;103155.06;5047312;28;20440;-81
2022/01/11 05:12:34;;;;;;;79.05;28.13;;;;;;;-1.94;100.00;103148.75;5051834;28;20035;-81
2022/01/11 05:15:01;;;;;;;79.18;28.38;;;;;;;-1.96;100.00;103155.47;5051633;28;20362;-81
2022/01/11 05:17:26;;;;;;;85.07;29.30;;;;;;;-1.99;100.00;103155.25;5050815;28;20078;-81
2022/01/11 05:19:52;;;;;;;83.97;29.25;;;;;;;-2.01;100.00;103151.72;5046992;28;20033;-81
2022/01/11 05:22:17;;;;;;;89.30;29.67;;;;;;;-2.04;100.00;103152.41;5051460;28;20036;-81
2022/01/11 05:24:42;;;;;;;84.93;30.02;;;;;;;-2.06;100.00;103146.31;5048947;28;20465;-81
2022/01/11 05:27:08;;;;;;;81.13;29.63;;;;;;;-2.09;100.00;103142.66;5051200;28;20053;-81
2022/01/11 05:29:34;;;;;;;91.35;30.17;;;;;;;-2.14;100.00;103147.47;5039498;28;20072;-81
2022/01/11 05:32:00;;;;;;;89.07;30.73;;;;;;;-2.18;100.00;103143.84;5030926;28;20456;-81
2022/01/11 05:34:26;;;;;;;97.07;30.17;;;;;;;-2.18;100.00;103131.06;5031568;28;20022;-81
2022/01/11 05:36:52;;;;;;;86.38;27.90;;;;;;;-2.20;100.00;103140.28;5046191;28;20107;-81
2022/01/11 05:39:17;;;;;;;93.78;29.42;;;;;;;-2.20;100.00;103144.50;5050299;28;20499;-81
2022/01/11 05:41:42;;;;;;;90.80;29.88;;;;;;;-2.21;100.00;103146.19;5051532;28;20033;-81
2022/01/11 05:44:08;;;;;;;90.25;28.98;;;;;;;-2.23;100.00;103152.84;5050733;28;20428;-81
2022/01/11 05:46:33;;;;;;;96.80;29.77;;;;;;;-2.25;100.00;103143.34;5050905;28;20065;-81
2022/01/11 05:48:58;;;;;;;85.63;28.75;;;;;;;-2.25;100.00;103151.00;5050609;28;20123;-81
2022/01/11 05:51:27;;;;;;;93.65;30.33;;;;;;;-2.27;100.00;103153.44;5050728;28;20029;-81
2022/01/11 05:53:53;;;;;;;88.68;28.98;;;;;;;-2.24;100.00;103150.22;5050211;28;20025;-81
2022/01/11 05:56:19;;;;;;;85.75;28.90;;;;;;;-2.25;100.00;103159.56;5050139;28;20392;-81
2022/01/11 05:58:44;;;;;;;93.18;27.92;;;;;;;-2.29;100.00;103154.13;5050291;28;20029;-81
2022/01/11 06:01:09;;;;;;;86.55;28.45;;;;;;;-2.29;100.00;103160.16;5051114;28;20389;-81
2022/01/11 06:03:35;;;;;;;86.32;28.05;;;;;;;-2.28;100.00;103167.03;5051302;28;20016;-81
2022/01/11 06:06:00;;;;;;;97.90;29.38;;;;;;;-2.26;100.00;103173.09;5050177;28;20438;-81
2022/01/11 06:08:25;;;;;;;97.85;29.20;;;;;;;-2.25;100.00;103185.09;5050014;28;20549;-81
2022/01/11 06:10:50;;;;;;;84.88;28.52;;;;;;;-2.30;100.00;103178.78;5051272;28;20021;-81
2022/01/11 06:13:16;;;;;;;84.43;28.13;;;;;;;-2.26;100.00;103188.44;5050164;28;20029;-81
2022/01/11 06:15:41;;;;;;;86.47;28.58;;;;;;;-2.28;100.00;103187.47;5050643;28;20036;-81
2022/01/11 06:18:07;;;;;;;91.03;29.23;;;;;;;-2.27;100.00;103198.56;5050487;28;20041;-81
2022/01/11 06:20:32;;;;;;;80.03;26.98;;;;;;;-2.29;100.00;103192.44;5050142;28;20052;-81
2022/01/11 06:22:58;;;;;;;83.93;29.45;;;;;;;-2.29;100.00;103205.22;5049771;28;20431;-81
2022/01/11 06:25:23;;;;;;;89.55;28.27;;;;;;;-2.33;100.00;103203.25;5049878;28;20021;-81
2022/01/11 06:27:49;;;;;;;85.97;28.02;;;;;;;-2.40;100.00;103196.84;5048711;28;20039;-81
2022/01/11 06:30:15;;;;;;;79.10;27.80;;;;;;;-2.39;100.00;103208.84;5049964;28;20067;-81
2022/01/11 06:32:43;;;;;;;80.32;27.05;;;;;;;-2.41;100.00;103218.09;5050442;28;20033;-81
2022/01/11 06:35:10;;;;;;;81.50;28.30;;;;;;;-2.40;100.00;103219.84;5052892;28;20033;-81
2022/01/11 06:37:35;;;;;;;83.82;28.52;;;;;;;-2.46;100.00;103207.53;5054448;28;20095;-81
2022/01/11 06:40:03;;;;;;;78.55;27.42;;;;;;;-2.44;100.00;103220.44;5054369;28;20469;-81
2022/01/11 06:42:29;;;;;;;85.60;28.23;;;;;;;-2.47;100.00;103225.31;5052780;28;20498;-81
2022/01/11 06:44:54;;;;;;;84.68;28.45;;;;;;;-2.46;100.00;103221.97;5054388;28;20108;-81
2022/01/11 06:47:19;;;;;;;76.68;27.55;;;;;;;-2.49;100.00;103222.66;5053221;28;20113;-81
2022/01/11 06:49:45;;;;;;;81.65;28.45;;;;;;;-2.50;100.00;103226.00;5053986;28;20107;-81
2022/01/11 06:52:10;;;;;;;86.25;28.25;;;;;;;-2.50;100.00;103223.44;5054061;28;20706;-81
2022/01/11 06:54:36;;;;;;;87.03;28.27;;;;;;;-2.49;100.00;103229.44;5052315;28;20147;-81
2022/01/11 06:57:01;;;;;;;85.40;29.65;;;;;;;-2.26;100.00;103225.88;5053803;28;20431;-81
2022/01/11 06:59:26;;;;;;;86.80;28.80;;;;;;;-2.13;100.00;103221.72;5054194;28;20025;-81
2022/01/11 07:01:51;;;;;;;85.32;29.73;;;;;;;-2.10;100.00;103220.13;5053074;28;20028;-81
2022/01/11 07:04:17;;;;;;;84.63;28.92;;;;;;;-2.13;100.00;103223.34;5054130;28;20033;-81
2022/01/11 07:06:42;;;;;;;72.35;26.73;;;;;;;-2.15;100.00;103227.50;5053751;28;20048;-81
2022/01/11 07:09:07;;;;;;;73.50;27.45;;;;;;;-2.18;100.00;103238.38;5052284;28;20036;-81
2022/01/11 07:11:32;;;;;;;81.18;28.13;;;;;;;-2.20;100.00;103244.19;5053612;28;20029;-81
2022/01/11 07:13:58;;;;;;;74.00;26.88;;;;;;;-2.21;100.00;103237.31;5053411;28;20043;-81
2022/01/11 07:16:23;;;;;;;74.05;27.05;;;;;;;-2.24;100.00;103237.09;5053115;28;20028;-81
2022/01/11 07:18:49;;;;;;;72.88;27.73;;;;;;;-2.25;100.00;103237.88;5053440;28;20063;-81
2022/01/11 07:21:15;;;;;;;71.15;26.60;;;;;;;-2.26;100.00;103243.75;5052142;28;20029;-81
2022/01/11 07:23:40;;;;;;;76.95;27.95;;;;;;;-2.30;100.00;103252.91;5035298;28;20100;-81
2022/01/11 07:26:07;;;;;;;78.60;29.10;;;;;;;-2.33;100.00;103252.69;5048322;28;20497;-81
2022/01/11 07:28:34;;;;;;;73.78;27.90;;;;;;;-2.36;100.00;103253.34;5053604;28;20120;-80
2022/01/11 07:30:59;;;;;;;77.55;27.45;;;;;;;-2.35;100.00;103261.94;5052820;28;20025;-81
2022/01/11 07:33:24;;;;;;;74.10;28.70;;;;;;;-2.37;100.00;103264.38;5035098;28;20071;-81
2022/01/11 07:35:50;;;;;;;79.72;29.23;;;;;;;-2.40;100.00;103261.59;5033978;28;20112;-81
2022/01/11 07:38:15;;;;;;;79.15;28.17;;;;;;;-2.36;100.00;103272.91;5032854;28;20075;-81
2022/01/11 07:40:40;;;;;;;76.65;27.75;;;;;;;-2.35;100.00;103269.59;5046950;28;20477;-81
2022/01/11 07:43:07;;;;;;;85.45;28.60;;;;;;;-2.33;100.00;103274.78;5052344;28;20043;-81
2022/01/11 07:45:32;;;;;;;73.07;27.60;;;;;;;-2.31;100.00;103278.34;5051346;28;20084;-81
2022/01/11 07:47:57;;;;;;;79.25;28.23;;;;;;;-2.34;100.00;103267.94;5052941;28;20486;-81
2022/01/11 07:50:23;;;;;;;79.18;29.10;;;;;;;-2.32;100.00;103282.59;5035081;28;20045;-81
2022/01/11 07:52:48;;;;;;;77.50;27.92;;;;;;;-2.30;100.00;103282.66;5046487;28;20025;-81
2022/01/11 07:55:14;;;;;;;69.90;26.40;;;;;;;-2.33;100.00;103280.78;5049713;28;20025;-81
2022/01/11 07:57:39;;;;;;;69.00;25.90;;;;;;;-2.29;100.00;103279.31;5051399;28;20078;-81
2022/01/11 08:00:07;;;;;;;73.97;28.10;;;;;;;-2.28;100.00;103282.00;5052820;28;20377;-81
2022/01/11 08:02:32;;;;;;;75.65;28.33;;;;;;;-2.29;100.00;103272.56;5047731;28;20048;-81
2022/01/11 08:04:57;;;;;;;66.72;25.55;;;;;;;-2.25;100.00;103271.09;5057076;28;20206;-81
2022/01/11 08:07:23;;;;;;;67.45;25.25;;;;;;;-2.27;100.00;103276.09;5052495;28;20029;-81
2022/01/11 08:09:48;;;;;;;69.85;25.73;;;;;;;-2.23;100.00;103280.63;5052872;28;20033;-81
2022/01/11 08:12:13;;;;;;;74.85;27.08;;;;;;;-2.21;100.00;103285.84;5052058;28;20483;-81
2022/01/11 08:14:38;;;;;;;66.60;26.55;;;;;;;-2.20;100.00;103283.38;5041708;28;20115;-81
2022/01/11 08:17:04;;;;;;;72.93;26.63;;;;;;;-2.16;100.00;103284.47;5051076;28;20051;-81
2022/01/11 08:19:30;;;;;;;64.82;24.55;;;;;;;-2.14;100.00;103286.38;5051975;28;20082;-81
2022/01/11 08:21:56;;;;;;;74.43;26.80;;;;;;;-2.15;100.00;103279.50;5052575;28;20025;-80
2022/01/11 08:24:23;;;;;;;71.32;26.77;;;;;;;-2.06;100.00;103284.34;5052250;28;20032;-82
2022/01/11 08:26:49;;;;;;;73.32;27.70;;;;;;;-1.99;100.00;103288.19;5049721;28;20056;-81
2022/01/11 08:29:17;;;;;;;68.70;26.50;;;;;;;-1.93;100.00;103289.50;5049082;28;20098;-82
2022/01/11 08:31:43;;;;;;;70.40;26.88;;;;;;;-1.84;100.00;103290.88;5052177;28;20031;-82
2022/01/11 08:34:11;;;;;;;78.18;27.65;;;;;;;-1.77;100.00;103296.47;5049552;28;20380;-81
2022/01/11 08:36:37;;;;;;;68.38;25.80;;;;;;;-1.70;100.00;103287.53;5033340;28;20033;-81
2022/01/11 08:39:03;;;;;;;63.95;25.48;;;;;;;-1.66;100.00;103282.75;5032280;28;20017;-82
2022/01/11 08:41:28;;;;;;;65.50;24.77;;;;;;;-1.58;100.00;103292.59;5031691;28;20491;-81
2022/01/11 08:43:54;;;;;;;65.47;25.23;;;;;;;-1.54;100.00;103284.31;5039096;28;20103;-81
2022/01/11 08:46:19;;;;;;;66.00;26.30;;;;;;;-1.50;100.00;103284.63;5050727;28;20029;-82
2022/01/11 08:48:44;;;;;;;65.88;24.73;;;;;;;-1.45;100.00;103284.91;5050303;28;20094;-82
2022/01/11 08:51:10;;;;;;;69.13;26.17;;;;;;;-1.41;100.00;103281.75;5052098;28;20362;-81
2022/01/11 08:53:35;;;;;;;56.08;23.63;;;;;;;-1.38;100.00;103279.41;5050439;28;20045;-82
2022/01/11 08:56:00;;;;;;;56.95;23.15;;;;;;;-1.35;100.00;103289.84;5050925;28;20461;-81
2022/01/11 08:58:26;;;;;;;57.60;25.35;;;;;;;-1.32;100.00;103282.38;5050767;28;20028;-82
2022/01/11 09:00:51;;;;;;;55.58;24.50;;;;;;;-1.30;100.00;103274.81;5051173;28;20029;-81
2022/01/11 09:03:17;;;;;;;60.03;24.25;;;;;;;-1.26;100.00;103290.44;5049852;28;20104;-81
2022/01/11 09:05:43;;;;;;;62.42;24.00;;;;;;;-1.24;100.00;103288.88;5051015;28;20049;-81
2022/01/11 09:08:10;;;;;;;62.38;23.33;;;;;;;-1.25;100.00;103297.31;5052190;28;20052;-81
2022/01/11 09:10:35;;;;;;;63.40;24.70;;;;;;;-1.17;100.00;103307.19;5071796;28;20031;-81
2022/01/11 09:13:01;;;;;;;48.80;22.42;;;;;;;-1.12;100.00;103308.34;5058893;28;20029;-82
2022/01/11 09:15:27;;;;;;;50.97;22.17;;;;;;;-1.09;100.00;103304.31;5050161;28;20481;-82
2022/01/11 09:17:53;;;;;;;55.15;23.25;;;;;;;-1.03;100.00;103296.13;5051794;28;20029;-81
2022/01/11 09:20:18;;;;;;;58.55;23.00;;;;;;;-0.95;100.00;103300.03;5052026;28;20094;-80
2022/01/11 09:22:44;;;;;;;54.65;22.73;;;;;;;-0.90;100.00;103303.78;5051028;28;20079;-81
2022/01/11 09:25:10;;;;;;;53.13;23.05;;;;;;;-0.83;100.00;103310.19;5039305;28;20024;-82
2022/01/11 09:27:36;;;;;;;51.20;22.77;;;;;;;-0.77;100.00;103303.78;5045334;28;20052;-81
2022/01/11 09:30:06;;;;;;;49.63;21.52;;;;;;;-0.63;100.00;103311.44;5045991;28;20029;-81
2022/01/11 09:32:33;;;;;;;52.40;22.88;;;;;;;-0.53;100.00;103306.94;5032079;28;20033;-81
2022/01/11 09:34:58;;;;;;;52.78;23.00;;;;;;;-0.41;100.00;103305.94;5048177;28;20029;-81
2022/01/11 09:37:23;;;;;;;44.65;20.98;;;;;;;-0.34;100.00;103303.84;5039030;28;20033;-82
2022/01/11 09:39:48;;;;;;;47.38;21.65;;;;;;;-0.29;100.00;103312.72;5046064;28;20384;-81
2022/01/11 09:42:14;;;;;;;47.88;21.30;;;;;;;-0.25;100.00;103314.66;5031331;28;20041;-82
2022/01/11 09:44:39;;;;;;;48.70;21.02;;;;;;;-0.20;100.00;103317.47;5048640;28;20029;-81
2022/01/11 09:47:07;;;;;;;43.38;20.48;;;;;;;-0.15;100.00;103310.09;5031508;28;20029;-82
2022/01/11 09:49:32;;;;;;;38.42;18.50;;;;;;;-0.07;100.00;103313.97;5047492;28;20033;-82
2022/01/11 09:52:01;;;;;;;40.50;18.92;;;;;;;-0.01;100.00;103319.47;5030793;28;20026;-82
2022/01/11 09:54:27;;;;;;;46.25;19.88;;;;;;;0.06;100.00;103325.84;5042128;28;20496;-82
2022/01/11 09:56:52;;;;;;;37.10;19.20;;;;;;;0.14;100.00;103333.22;5056207;28;20037;-82
2022/01/11 09:59:18;;;;;;;36.00;18.83;;;;;;;0.22;100.00;103326.84;5050505;28;20031;-82
2022/01/11 10:01:43;;;;;;;39.88;17.70;;;;;;;0.29;100.00;103327.19;5051385;28;20120;-82
2022/01/11 10:04:11;;;;;;;35.50;16.88;;;;;;;0.33;100.00;103322.34;5050452;28;20024;-82
2022/01/11 10:06:42;;;;;;;34.33;17.55;;;;;;;0.37;100.00;103324.28;5051009;28;20025;-82
2022/01/11 10:09:18;;;;;;;32.38;17.42;;;;;;;0.47;100.00;103333.41;5052611;28;20111;-82
2022/01/11 10:11:49;;;;;;;35.42;16.15;;;;;;;0.57;100.00;103327.13;5052869;28;20052;-82
2022/01/11 10:14:20;;;;;;;35.13;16.17;;;;;;;0.64;100.00;103334.38;5054830;28;20511;-82
2022/01/11 10:16:46;;;;;;;34.42;16.50;;;;;;;0.73;100.00;103334.03;5054618;28;20064;-82
2022/01/11 10:19:24;;;;;;;30.13;16.35;;;;;;;0.82;100.00;103327.72;5053664;28;20131;-82
2022/01/11 10:21:50;;;;;;;36.90;16.95;;;;;;;0.87;100.00;103331.41;5055088;28;20024;-82
2022/01/11 10:24:27;;;;;;;31.75;16.33;;;;;;;0.97;100.00;103325.13;5049788;28;20032;-82
2022/01/11 10:26:56;;;;;;;37.38;16.92;;;;;;;1.03;100.00;103320.31;5049041;28;20134;-82
2022/01/11 10:29:31;;;;;;;32.63;16.23;;;;;;;1.14;100.00;103319.25;5055062;28;20067;-83
2022/01/11 10:31:59;;;;;;;33.67;16.10;;;;;;;1.25;100.00;103322.38;5045932;28;20083;-83
2022/01/11 10:34:32;;;;;;;32.67;15.50;;;;;;;1.31;100.00;103321.84;5039611;28;20109;-81
2022/01/11 10:37:02;;;;;;;29.63;14.23;;;;;;;1.38;100.00;103318.81;5054210;28;20455;-82
2022/01/11 10:39:34;;;;;;;26.92;14.35;;;;;;;1.40;100.00;103319.75;5052261;28;20041;-83
2022/01/11 10:42:01;;;;;;;32.47;15.60;;;;;;;1.45;100.00;103318.31;5048943;28;20484;-82
2022/01/11 10:44:55;;;;;;;34.28;15.82;;;;;;;1.51;100.00;103322.91;5056938;28;20028;-83
2022/01/11 10:47:40;;;;;;;31.80;15.48;;;;;;;1.57;100.00;103323.22;5034125;28;20033;-83
2022/01/11 10:50:10;;;;;;;31.48;14.52;;;;;;;1.62;100.00;103325.22;5048192;28;20023;-83
2022/01/11 10:52:36;;;;;;;31.73;15.27;;;;;;;1.68;100.00;103316.09;5061535;28;20024;-82
2022/01/11 10:55:06;;;;;;;27.45;14.32;;;;;;;1.74;100.00;103324.13;5073351;28;20111;-83
2022/01/11 10:57:37;;;;;;;29.63;14.60;;;;;;;1.77;100.00;103330.31;5062955;28;20485;-83
2022/01/11 11:00:14;;;;;;;28.70;14.93;;;;;;;1.86;100.00;103329.88;5056892;28;20466;-82
2022/01/11 11:02:40;;;;;;;26.48;13.75;;;;;;;1.87;100.00;103335.13;5057696;28;20057;-82